Time;durP1;ratioP1;P1;durP2;ratioP2;P2;SDS_P1;SDS_P2;PMS_P1;PMS_P2;Temp;Humidity;BMP_temperature;BMP_pressure;BME280_temperature;BME280_humidity;BME280_pressure;Samples;Min_cycle;Max_cycle;Signal;HPM_P1;HPM_P2
2022/01/02 00:00:13;;;;;;;;;;;12.40;94.10;;;;;;5019877;28;19973;-76
2022/01/02 00:02:40;;;;;;;;;;;12.40;94.10;;;;;;5020910;28;19967;-76
2022/01/02 00:05:07;;;;;;;;;;;12.40;94.10;;;;;;5019565;28;20012;-76
2022/01/02 00:07:42;;;;;;;;;;;12.40;94.10;;;;;;5018636;28;19925;-75
2022/01/02 00:10:08;;;;;;;;;;;12.40;94.10;;;;;;5019547;28;20389;-76
2022/01/02 00:12:35;;;;;;;;;;;12.40;94.10;;;;;;5018327;28;19917;-76
2022/01/02 00:15:05;;;;;;;;;;;12.40;94.10;;;;;;5018092;28;20004;-76
2022/01/02 00:17:31;;;;;;;;;;;12.30;94.10;;;;;;5019665;28;20270;-75
2022/01/02 00:19:58;;;;;;;;;;;12.30;94.10;;;;;;5018498;28;19914;-76
2022/01/02 00:22:34;;;;;;;;;;;12.30;94.20;;;;;;5019603;28;20407;-75
2022/01/02 00:25:03;;;;;;;;;;;12.20;94.20;;;;;;5007687;28;19921;-75
2022/01/02 00:27:31;;;;;;;;;;;12.20;94.20;;;;;;5017737;28;19956;-75
2022/01/02 00:29:57;;;;;;;;;;;12.20;94.30;;;;;;5018423;28;19921;-75
2022/01/02 00:32:23;;;;;;;;;;;12.30;94.30;;;;;;5024778;28;19960;-75
2022/01/02 00:34:51;;;;;;;;;;;12.20;94.20;;;;;;5006456;28;19910;-75
2022/01/02 00:37:17;;;;;;;;;;;12.20;94.20;;;;;;5018406;28;20401;-75
2022/01/02 00:39:43;;;;;;;;;;;12.20;94.20;;;;;;5019090;28;19913;-75
2022/01/02 00:42:14;;;;;;;;;;;12.20;94.20;;;;;;5019208;28;19909;-75
2022/01/02 00:44:58;;;;;;;;;;;12.10;94.20;;;;;;5019790;28;19906;-76
2022/01/02 00:47:36;;;;;;;;;;;12.10;94.10;;;;;;5024795;28;19918;-76
2022/01/02 00:50:09;;;;;;;;;;;12.10;94.20;;;;;;5019068;28;19909;-75
2022/01/02 00:52:36;;;;;;;;;;;12.20;94.50;;;;;;5018954;28;19929;-75
2022/01/02 00:55:03;;;;;;;;;;;12.20;94.60;;;;;;5019152;28;20355;-75
2022/01/02 00:57:31;;;;;;;;;;;12.20;94.40;;;;;;5018674;28;19921;-75
2022/01/02 01:00:10;;;;;;;;;;;12.20;94.30;;;;;;5019288;28;19910;-75
2022/01/02 01:02:50;;;;;;;;;;;12.10;94.20;;;;;;5013487;28;20288;-75
2022/01/02 01:05:20;;;;;;;;;;;12.10;94.20;;;;;;5018505;28;20340;-75
2022/01/02 01:07:50;;;;;;;;;;;12.10;94.20;;;;;;5018771;28;19963;-75
2022/01/02 01:10:17;;;;;;;;;;;12.10;94.10;;;;;;5018221;28;19960;-75
2022/01/02 01:12:44;;;;;;;;;;;12.10;94.10;;;;;;5017972;28;19917;-75
2022/01/02 01:15:10;;;;;;;;;;;12.10;94.00;;;;;;5018671;28;19913;-75
2022/01/02 01:17:36;;;;;;;;;;;12.20;94.00;;;;;;5018052;28;19913;-76
2022/01/02 01:20:03;;;;;;;;;;;12.20;93.90;;;;;;5017220;28;19945;-76
2022/01/02 01:22:29;;;;;;;;;;;12.20;93.80;;;;;;5018315;28;19910;-75
2022/01/02 01:24:54;;;;;;;;;;;12.20;93.80;;;;;;5018532;28;19929;-75
2022/01/02 01:27:20;;;;;;;;;;;12.30;93.70;;;;;;5018043;28;20013;-75
2022/01/02 01:29:46;;;;;;;;;;;12.20;93.60;;;;;;5018446;28;19944;-75
2022/01/02 01:32:11;;;;;;;;;;;12.20;93.60;;;;;;5022807;28;19909;-75
2022/01/02 01:34:37;;;;;;;;;;;12.20;93.50;;;;;;5024691;28;19909;-75
2022/01/02 01:37:03;;;;;;;;;;;12.30;93.50;;;;;;5018231;28;19917;-75
2022/01/02 01:39:28;;;;;;;;;;;12.30;93.50;;;;;;5018378;28;19909;-75
2022/01/02 01:41:55;;;;;;;;;;;12.30;93.50;;;;;;5018261;28;20392;-75
2022/01/02 01:44:28;;;;;;;;;;;12.30;93.80;;;;;;5018589;28;19909;-75
2022/01/02 01:46:55;;;;;;;;;;;12.30;93.60;;;;;;5020497;28;19972;-75
2022/01/02 01:49:23;;;;;;;;;;;12.20;93.60;;;;;;5016433;28;19973;-75
2022/01/02 01:51:48;;;;;;;;;;;12.30;93.60;;;;;;5016224;28;20402;-75
2022/01/02 01:54:14;;;;;;;;;;;12.30;93.60;;;;;;5018020;28;19996;-75
2022/01/02 01:56:40;;;;;;;;;;;12.30;93.70;;;;;;5016922;28;19909;-76
2022/01/02 01:59:06;;;;;;;;;;;12.30;93.60;;;;;;5017226;28;19913;-75
2022/01/02 02:01:32;;;;;;;;;;;12.30;93.60;;;;;;5020042;28;19935;-75
2022/01/02 02:03:58;;;;;;;;;;;12.30;93.70;;;;;;5021817;28;20439;-75
2022/01/02 02:06:24;;;;;;;;;;;12.30;93.70;;;;;;5017859;28;19914;-74
2022/01/02 02:08:52;;;;;;;;;;;12.30;93.70;;;;;;5017067;28;19914;-73
2022/01/02 02:11:19;;;;;;;;;;;12.30;93.70;;;;;;5018037;28;19910;-73
2022/01/02 02:13:45;;;;;;;;;;;12.20;93.70;;;;;;5017994;28;19960;-74
2022/01/02 02:16:10;;;;;;;;;;;12.30;93.70;;;;;;5017814;28;20376;-73
2022/01/02 02:18:36;;;;;;;;;;;12.20;93.80;;;;;;5017552;28;20791;-73
2022/01/02 02:21:02;;;;;;;;;;;12.20;93.80;;;;;;5017836;28;20000;-75
2022/01/02 02:23:28;;;;;;;;;;;12.20;93.80;;;;;;5017768;28;20021;-75
2022/01/02 02:25:53;;;;;;;;;;;12.20;93.90;;;;;;5017689;28;19944;-75
2022/01/02 02:28:19;;;;;;;;;;;12.20;93.90;;;;;;5017428;28;20012;-76
2022/01/02 02:30:46;;;;;;;;;;;12.20;94.00;;;;;;5017467;28;20303;-75
2022/01/02 02:33:12;;;;;;;;;;;12.20;94.00;;;;;;5020829;28;19909;-75
2022/01/02 02:35:39;;;;;;;;;;;12.20;94.00;;;;;;5016094;28;19916;-75
2022/01/02 02:38:07;;;;;;;;;;;12.20;94.10;;;;;;5017491;28;19920;-75
2022/01/02 02:40:34;;;;;;;;;;;12.20;94.10;;;;;;5017568;28;19914;-75
2022/01/02 02:43:05;;;;;;;;;;;12.20;94.20;;;;;;5017623;28;19929;-75
2022/01/02 02:51:06;;;;;;;;;;;12.10;94.30;;;;;;5017503;28;19921;-75
2022/01/02 02:53:32;;;;;;;;;;;12.10;94.40;;;;;;5017536;28;20028;-75
2022/01/02 02:55:59;;;;;;;;;;;12.10;94.50;;;;;;5017410;28;19960;-75
2022/01/02 03:00:53;;;;;;;;;;;12.10;95.00;;;;;;5017459;28;19976;-75
2022/01/02 03:03:19;;;;;;;;;;;12.20;95.00;;;;;;5027325;28;19937;-75
2022/01/02 03:05:45;;;;;;;;;;;12.20;95.00;;;;;;5020806;28;19909;-75
2022/01/02 03:08:10;;;;;;;;;;;12.20;95.20;;;;;;5020826;28;19928;-75
2022/01/02 03:10:36;;;;;;;;;;;12.30;95.40;;;;;;5021236;28;19916;-75
2022/01/02 03:13:01;;;;;;;;;;;12.30;95.40;;;;;;5021116;28;19910;-75
2022/01/02 03:15:27;;;;;;;;;;;12.40;95.50;;;;;;5021248;28;19910;-75
2022/01/02 03:17:53;;;;;;;;;;;12.40;95.60;;;;;;5020206;28;19918;-75
2022/01/02 03:20:18;;;;;;;;;;;12.50;95.90;;;;;;5020977;28;20440;-75
2022/01/02 03:22:44;;;;;;;;;;;12.50;96.10;;;;;;5020764;28;20004;-75
2022/01/02 03:25:13;;;;;;;;;;;12.60;96.10;;;;;;5010810;28;19922;-75
2022/01/02 03:27:40;;;;;;;;;;;12.60;96.00;;;;;;5017051;28;19952;-74
2022/01/02 03:30:06;;;;;;;;;;;12.70;96.20;;;;;;5019890;28;20403;-75
2022/01/02 03:32:31;;;;;;;;;;;12.70;96.10;;;;;;5021066;28;19975;-75
2022/01/02 03:34:57;;;;;;;;;;;12.70;96.10;;;;;;5022078;28;19909;-74
2022/01/02 03:37:25;;;;;;;;;;;12.70;96.10;;;;;;5020806;28;19963;-74
2022/01/02 03:39:50;;;;;;;;;;;12.80;96.10;;;;;;5019991;28;20366;-74
2022/01/02 03:42:16;;;;;;;;;;;12.80;96.10;;;;;;5020334;28;19976;-74
2022/01/02 03:44:41;;;;;;;;;;;12.80;96.10;;;;;;5020557;28;20430;-75
2022/01/02 03:47:07;;;;;;;;;;;12.80;96.20;;;;;;5011495;28;19920;-75
2022/01/02 03:49:33;;;;;;;;;;;12.80;96.20;;;;;;5019745;28;19922;-75
2022/01/02 03:51:58;;;;;;;;;;;12.90;96.40;;;;;;5020390;28;19916;-75
2022/01/02 03:54:24;;;;;;;;;;;13.00;96.60;;;;;;5020553;28;19909;-75
2022/01/02 03:56:51;;;;;;;;;;;13.00;96.50;;;;;;5020413;28;20281;-75
2022/01/02 03:59:17;;;;;;;;;;;13.10;96.60;;;;;;5019976;28;19914;-75
2022/01/02 04:01:43;;;;;;;;;;;13.10;96.50;;;;;;5023525;28;19913;-75
2022/01/02 04:04:09;;;;;;;;;;;13.10;96.50;;;;;;5024415;28;19917;-75
2022/01/02 04:06:34;;;;;;;;;;;13.00;96.40;;;;;;5020065;28;19953;-75
2022/01/02 04:09:00;;;;;;;;;;;13.10;96.50;;;;;;5020026;28;20011;-75
2022/01/02 04:11:25;;;;;;;;;;;13.10;96.70;;;;;;5019552;28;19996;-75
2022/01/02 04:13:51;;;;;;;;;;;13.10;96.40;;;;;;5019342;28;19916;-75
2022/01/02 04:16:16;;;;;;;;;;;13.10;96.30;;;;;;5019785;28;19917;-75
2022/01/02 04:18:42;;;;;;;;;;;13.10;96.40;;;;;;5020135;28;19909;-75
2022/01/02 04:21:08;;;;;;;;;;;13.10;96.30;;;;;;5018869;28;19918;-75
2022/01/02 04:23:33;;;;;;;;;;;13.10;96.20;;;;;;5019712;28;20283;-75
2022/01/02 04:25:59;;;;;;;;;;;13.00;96.10;;;;;;5019216;28;20395;-75
2022/01/02 04:28:25;;;;;;;;;;;13.00;96.10;;;;;;5019845;28;19996;-75
2022/01/02 04:30:50;;;;;;;;;;;13.00;96.20;;;;;;5018950;28;19914;-75
2022/01/02 04:33:16;;;;;;;;;;;13.00;96.30;;;;;;5020116;28;19967;-75
2022/01/02 04:35:42;;;;;;;;;;;13.10;96.30;;;;;;5019224;28;20336;-75
2022/01/02 04:38:07;;;;;;;;;;;13.00;96.20;;;;;;5019774;28;20369;-75
2022/01/02 04:40:33;;;;;;;;;;;13.10;96.30;;;;;;5018569;28;20487;-75
2022/01/02 04:42:58;;;;;;;;;;;13.10;96.30;;;;;;5019520;28;20423;-76
2022/01/02 04:45:24;;;;;;;;;;;13.10;96.30;;;;;;5019305;28;19909;-75
2022/01/02 04:47:50;;;;;;;;;;;13.10;96.10;;;;;;5022901;28;19913;-76
2022/01/02 04:50:15;;;;;;;;;;;13.10;96.10;;;;;;5018270;28;20436;-76
2022/01/02 04:52:41;;;;;;;;;;;13.10;96.00;;;;;;5019273;28;20003;-76
2022/01/02 04:55:07;;;;;;;;;;;13.10;95.90;;;;;;5019021;28;19947;-76
2022/01/02 04:57:34;;;;;;;;;;;13.10;95.90;;;;;;5019150;28;20000;-75
2022/01/02 04:59:59;;;;;;;;;;;13.00;95.90;;;;;;5018881;28;19941;-74
2022/01/02 05:02:25;;;;;;;;;;;13.00;96.10;;;;;;5028049;28;19909;-76
2022/01/02 05:04:51;;;;;;;;;;;13.00;96.30;;;;;;5020655;28;19914;-76
2022/01/02 05:07:16;;;;;;;;;;;13.10;96.20;;;;;;5019051;28;19918;-75
2022/01/02 05:09:42;;;;;;;;;;;13.10;96.10;;;;;;5018334;28;20003;-75
2022/01/02 05:12:08;;;;;;;;;;;13.10;96.40;;;;;;5018768;28;19948;-75
2022/01/02 05:14:33;;;;;;;;;;;13.10;96.00;;;;;;5018495;28;20388;-75
2022/01/02 05:16:59;;;;;;;;;;;13.10;95.90;;;;;;5018198;28;19967;-75
2022/01/02 05:19:24;;;;;;;;;;;13.10;95.90;;;;;;5018052;28;19913;-74
2022/01/02 05:21:50;;;;;;;;;;;13.10;95.80;;;;;;5018560;28;19910;-74
2022/01/02 05:24:16;;;;;;;;;;;13.20;95.70;;;;;;5018417;28;20404;-74
2022/01/02 05:26:41;;;;;;;;;;;13.20;95.60;;;;;;5018310;28;19914;-73
2022/01/02 05:29:07;;;;;;;;;;;13.20;95.60;;;;;;5018378;28;19918;-73
2022/01/02 05:31:32;;;;;;;;;;;13.20;95.50;;;;;;5018071;28;19914;-73
2022/01/02 05:33:58;;;;;;;;;;;13.20;95.50;;;;;;5030909;28;19913;-73
2022/01/02 05:36:25;;;;;;;;;;;13.20;95.40;;;;;;5018241;28;19909;-74
2022/01/02 05:38:51;;;;;;;;;;;13.20;95.40;;;;;;5007102;28;19913;-74
2022/01/02 05:41:16;;;;;;;;;;;13.30;95.30;;;;;;5018486;28;20273;-73
2022/01/02 05:43:42;;;;;;;;;;;13.30;95.30;;;;;;5018360;28;19909;-73
2022/01/02 05:46:07;;;;;;;;;;;13.30;95.30;;;;;;5018943;28;19917;-73
2022/01/02 05:48:34;;;;;;;;;;;13.30;95.10;;;;;;5020439;28;19967;-74
2022/01/02 05:51:00;;;;;;;;;;;13.30;95.10;;;;;;5018290;28;19916;-74
2022/01/02 05:53:26;;;;;;;;;;;13.30;95.10;;;;;;5018138;28;20004;-73
2022/01/02 05:55:52;;;;;;;;;;;13.40;95.00;;;;;;5018264;28;19961;-73
2022/01/02 05:58:18;;;;;;;;;;;13.30;95.00;;;;;;5017653;28;19918;-73
2022/01/02 06:00:43;;;;;;;;;;;13.30;95.00;;;;;;5018461;28;19917;-74
2022/01/02 06:03:09;;;;;;;;;;;13.30;95.00;;;;;;5028785;28;19910;-74
2022/01/02 06:05:34;;;;;;;;;;;13.30;95.00;;;;;;5018012;28;19917;-74
2022/01/02 06:08:01;;;;;;;;;;;13.30;95.00;;;;;;5017956;28;20475;-74
2022/01/02 06:10:27;;;;;;;;;;;13.30;95.00;;;;;;5017412;28;19917;-74
2022/01/02 06:12:53;;;;;;;;;;;13.40;95.00;;;;;;5018014;28;19956;-74
2022/01/02 06:15:19;;;;;;;;;;;13.40;95.00;;;;;;5018192;28;20280;-74
2022/01/02 06:17:44;;;;;;;;;;;13.30;95.00;;;;;;5017972;28;20007;-74
2022/01/02 06:20:10;;;;;;;;;;;13.40;95.00;;;;;;5017464;28;19937;-74
2022/01/02 06:22:36;;;;;;;;;;;13.40;94.90;;;;;;5018003;28;19914;-74
2022/01/02 06:25:01;;;;;;;;;;;13.40;95.00;;;;;;5017577;28;20020;-73
2022/01/02 06:27:27;;;;;;;;;;;13.40;95.00;;;;;;5016307;28;20051;-74
2022/01/02 06:29:53;;;;;;;;;;;13.40;95.10;;;;;;5017512;28;19925;-74
2022/01/02 06:32:18;;;;;;;;;;;13.50;95.20;;;;;;5019407;28;19956;-74
2022/01/02 06:34:46;;;;;;;;;;;13.40;95.30;;;;;;5017604;28;19909;-73
2022/01/02 06:37:12;;;;;;;;;;;13.40;95.30;;;;;;5018153;28;19933;-75
2022/01/02 06:39:38;;;;;;;;;;;13.50;95.50;;;;;;5021168;28;20488;-74
2022/01/02 06:42:04;;;;;;;;;;;13.40;95.60;;;;;;5021502;28;19952;-74
2022/01/02 06:44:30;;;;;;;;;;;13.40;95.70;;;;;;5021706;28;19909;-74
2022/01/02 06:46:55;;;;;;;;;;;13.40;95.80;;;;;;5027314;28;19948;-74
2022/01/02 06:49:21;;;;;;;;;;;13.40;95.80;;;;;;5021112;28;19913;-74
2022/01/02 06:51:46;;;;;;;;;;;13.40;95.90;;;;;;5020311;28;20365;-76
2022/01/02 06:54:12;;;;;;;;;;;13.30;95.90;;;;;;5021620;28;19918;-75
2022/01/02 06:56:38;;;;;;;;;;;13.30;95.80;;;;;;5021366;28;19917;-76
2022/01/02 06:59:03;;;;;;;;;;;13.30;95.80;;;;;;5020479;28;19949;-76
2022/01/02 07:01:29;;;;;;;;;;;13.30;95.80;;;;;;5021737;28;19913;-74
2022/01/02 07:03:55;;;;;;;;;;;13.30;95.90;;;;;;5024822;28;20012;-74
2022/01/02 07:06:20;;;;;;;;;;;13.30;95.90;;;;;;5020396;28;19944;-74
2022/01/02 07:08:46;;;;;;;;;;;13.30;96.00;;;;;;5020117;28;19914;-74
2022/01/02 07:11:11;;;;;;;;;;;13.30;96.10;;;;;;5020607;28;19913;-73
2022/01/02 07:13:40;;;;;;;;;;;13.30;96.00;;;;;;5020990;28;19971;-74
2022/01/02 07:16:05;;;;;;;;;;;13.30;96.10;;;;;;5019758;28;19920;-74
2022/01/02 07:18:31;;;;;;;;;;;13.30;96.20;;;;;;5019095;28;19913;-73
2022/01/02 07:20:56;;;;;;;;;;;13.30;96.30;;;;;;5020154;28;19913;-73
2022/01/02 07:23:22;;;;;;;;;;;13.40;96.30;;;;;;5020126;28;19922;-74
2022/01/02 07:25:48;;;;;;;;;;;13.30;96.40;;;;;;5019308;28;19923;-74
2022/01/02 07:28:13;;;;;;;;;;;13.40;96.50;;;;;;5020079;28;19966;-73
2022/01/02 07:30:39;;;;;;;;;;;13.30;96.50;;;;;;5019430;28;20379;-74
2022/01/02 07:33:04;;;;;;;;;;;13.30;96.40;;;;;;5027034;28;19910;-74
2022/01/02 07:35:30;;;;;;;;;;;13.40;96.40;;;;;;5020633;28;19913;-74
2022/01/02 07:37:57;;;;;;;;;;;13.40;96.30;;;;;;5020515;28;19932;-74
2022/01/02 07:40:23;;;;;;;;;;;13.40;96.20;;;;;;5019945;28;19913;-74
2022/01/02 07:42:49;;;;;;;;;;;13.30;96.10;;;;;;5020631;28;20379;-74
2022/01/02 07:45:15;;;;;;;;;;;13.40;96.00;;;;;;5020495;28;19913;-74
2022/01/02 07:47:40;;;;;;;;;;;13.40;96.00;;;;;;5023035;28;20353;-74
2022/01/02 07:50:06;;;;;;;;;;;13.40;96.00;;;;;;5018743;28;19909;-74
2022/01/02 07:52:32;;;;;;;;;;;13.40;95.90;;;;;;5019953;28;20388;-74
2022/01/02 07:54:57;;;;;;;;;;;13.40;95.90;;;;;;5019491;28;19981;-74
2022/01/02 07:57:23;;;;;;;;;;;13.40;95.90;;;;;;5020295;28;19964;-74
2022/01/02 07:59:49;;;;;;;;;;;13.40;95.90;;;;;;5019857;28;20004;-74
2022/01/02 08:02:14;;;;;;;;;;;13.40;95.80;;;;;;5027734;28;19920;-74
2022/01/02 08:04:40;;;;;;;;;;;13.40;95.80;;;;;;5022454;28;19916;-72
2022/01/02 08:07:06;;;;;;;;;;;13.40;95.90;;;;;;5020329;28;19920;-74
2022/01/02 08:09:31;;;;;;;;;;;13.40;95.80;;;;;;5019390;28;20372;-74
2022/01/02 08:11:57;;;;;;;;;;;13.40;95.80;;;;;;5020039;28;19953;-74
2022/01/02 08:14:22;;;;;;;;;;;13.40;95.70;;;;;;5019820;28;19948;-74
2022/01/02 08:16:48;;;;;;;;;;;13.50;95.70;;;;;;5020154;28;19917;-73
2022/01/02 08:19:14;;;;;;;;;;;13.40;95.60;;;;;;5019116;28;19918;-74
2022/01/02 08:21:39;;;;;;;;;;;13.50;95.50;;;;;;5019699;28;20284;-74
2022/01/02 08:24:06;;;;;;;;;;;13.50;95.40;;;;;;5019551;28;19961;-73
2022/01/02 08:26:31;;;;;;;;;;;13.50;95.30;;;;;;5019455;28;19920;-74
2022/01/02 08:29:00;;;;;;;;;;;13.50;95.10;;;;;;5019459;28;20293;-73
2022/01/02 08:31:27;;;;;;;;;;;13.60;95.00;;;;;;5019535;28;20415;-73
2022/01/02 08:33:52;;;;;;;;;;;13.60;94.90;;;;;;5031033;28;19917;-73
2022/01/02 08:36:18;;;;;;;;;;;13.60;94.70;;;;;;5019273;28;19909;-74
2022/01/02 08:38:46;;;;;;;;;;;13.60;94.70;;;;;;5019421;28;19909;-74
2022/01/02 08:41:12;;;;;;;;;;;13.60;94.60;;;;;;5018945;28;19921;-75
2022/01/02 08:43:38;;;;;;;;;;;13.60;94.40;;;;;;5019236;28;19910;-74
2022/01/02 08:46:03;;;;;;;;;;;13.60;94.40;;;;;;5019412;28;20876;-81
2022/01/02 08:48:29;;;;;;;;;;;13.70;94.40;;;;;;5020251;28;19909;-74
2022/01/02 08:50:55;;;;;;;;;;;13.60;94.40;;;;;;5017911;28;19921;-74
2022/01/02 08:53:20;;;;;;;;;;;13.70;94.40;;;;;;5019269;28;20000;-74
2022/01/02 08:55:46;;;;;;;;;;;13.70;94.30;;;;;;5018846;28;19909;-74
2022/01/02 08:58:11;;;;;;;;;;;13.70;94.20;;;;;;5018880;28;19918;-73
2022/01/02 09:00:37;;;;;;;;;;;13.70;94.00;;;;;;5018611;28;19921;-73
2022/01/02 09:03:03;;;;;;;;;;;13.70;94.00;;;;;;5026690;28;19913;-73
2022/01/02 09:05:29;;;;;;;;;;;13.80;93.90;;;;;;5018182;28;20368;-74
2022/01/02 09:07:55;;;;;;;;;;;13.80;93.80;;;;;;5018982;28;19937;-74
2022/01/02 09:10:21;;;;;;;;;;;13.80;93.80;;;;;;5018411;28;19937;-74
2022/01/02 09:12:47;;;;;;;;;;;13.80;93.80;;;;;;5018411;28;20360;-74
2022/01/02 09:15:13;;;;;;;;;;;13.80;93.40;;;;;;5019087;28;19917;-74
2022/01/02 09:17:39;;;;;;;;;;;13.80;93.40;;;;;;5017565;28;19910;-74
2022/01/02 09:20:05;;;;;;;;;;;13.80;93.50;;;;;;5018176;28;19913;-73
2022/01/02 09:22:31;;;;;;;;;;;13.90;93.20;;;;;;5018695;28;19913;-74
2022/01/02 09:24:57;;;;;;;;;;;13.90;93.20;;;;;;5017881;28;20419;-73
2022/01/02 09:27:22;;;;;;;;;;;14.00;92.90;;;;;;5018448;28;20384;-73
2022/01/02 09:29:48;;;;;;;;;;;14.00;92.90;;;;;;5018124;28;19949;-75
2022/01/02 09:32:14;;;;;;;;;;;14.00;93.00;;;;;;5020435;28;19949;-76
2022/01/02 09:34:39;;;;;;;;;;;14.00;92.80;;;;;;5018290;28;19910;-76
2022/01/02 09:37:05;;;;;;;;;;;14.00;93.10;;;;;;5017869;28;21338;-74
2022/01/02 09:39:31;;;;;;;;;;;14.00;93.00;;;;;;5017962;28;20388;-74
2022/01/02 09:41:56;;;;;;;;;;;14.00;93.00;;;;;;5018391;28;19968;-73
2022/01/02 09:44:22;;;;;;;;;;;14.00;92.80;;;;;;5016904;28;19916;-73
2022/01/02 09:46:50;;;;;;;;;;;14.10;92.80;;;;;;5024328;28;20371;-73
2022/01/02 09:49:16;;;;;;;;;;;14.10;92.60;;;;;;5020515;28;20008;-74
2022/01/02 09:51:41;;;;;;;;;;;14.20;92.60;;;;;;5016269;28;19953;-74
2022/01/02 09:54:09;;;;;;;;;;;14.20;92.60;;;;;;5017792;28;19917;-76
2022/01/02 09:56:34;;;;;;;;;;;14.30;92.10;;;;;;5018062;28;19910;-76
2022/01/02 09:59:02;;;;;;;;;;;14.30;92.30;;;;;;5017998;28;19932;-76
2022/01/02 10:01:29;;;;;;;;;;;14.30;92.30;;;;;;5019374;28;19909;-76
2022/01/02 10:03:56;;;;;;;;;;;14.40;92.30;;;;;;5020269;28;19913;-76
2022/01/02 10:06:36;;;;;;;;;;;14.40;91.90;;;;;;5017818;28;19921;-76
2022/01/02 10:09:02;;;;;;;;;;;14.40;92.00;;;;;;5017483;28;20450;-76
2022/01/02 10:11:28;;;;;;;;;;;14.30;92.00;;;;;;5017307;28;19933;-76
2022/01/02 10:13:55;;;;;;;;;;;14.40;91.90;;;;;;5017209;28;19917;-74
2022/01/02 10:16:21;;;;;;;;;;;14.30;91.90;;;;;;5017971;28;20005;-74
2022/01/02 10:18:48;;;;;;;;;;;14.30;92.00;;;;;;5018184;28;19909;-74
2022/01/02 10:21:28;;;;;;;;;;;14.30;92.10;;;;;;5017392;28;19918;-74
2022/01/02 10:24:13;;;;;;;;;;;14.30;92.40;;;;;;5017597;28;20004;-74
2022/01/02 10:26:39;;;;;;;;;;;14.40;92.10;;;;;;5016847;28;20008;-74
2022/01/02 10:29:12;;;;;;;;;;;14.40;91.70;;;;;;5017015;28;19913;-74
2022/01/02 10:31:38;;;;;;;;;;;14.40;91.80;;;;;;5024334;28;19913;-73
2022/01/02 10:34:04;;;;;;;;;;;14.40;91.80;;;;;;5019266;28;20738;-73
2022/01/02 10:36:31;;;;;;;;;;;14.40;91.50;;;;;;5017650;28;20455;-74
2022/01/02 10:39:15;;;;;;;;;;;14.30;91.50;;;;;;5018119;28;19933;-74
2022/01/02 10:41:46;;;;;;;;;;;14.40;91.50;;;;;;5005140;28;20431;-74
2022/01/02 10:44:32;;;;;;;;;;;14.40;91.30;;;;;;5017684;28;19910;-73
2022/01/02 10:47:17;;;;;;;;;;;14.40;90.90;;;;;;5019123;28;19918;-74
2022/01/02 10:49:52;;;;;;;;;;;14.30;91.00;;;;;;5004733;28;19909;-74
2022/01/02 10:52:21;;;;;;;;;;;14.40;91.30;;;;;;5017409;28;19916;-76
2022/01/02 10:54:47;;;;;;;;;;;14.50;90.70;;;;;;5024547;28;20386;-74
2022/01/02 10:57:12;;;;;;;;;;;14.50;90.60;;;;;;5018692;28;19964;-74
2022/01/02 10:59:38;;;;;;;;;;;14.50;90.30;;;;;;5017468;28;19996;-74
2022/01/02 11:02:05;;;;;;;;;;;14.60;90.50;;;;;;5029586;28;20395;-73
2022/01/02 11:04:31;;;;;;;;;;;14.60;90.30;;;;;;5028794;28;19916;-74
2022/01/02 11:07:00;;;;;;;;;;;14.60;90.40;;;;;;5036959;28;19920;-74
2022/01/02 11:09:27;;;;;;;;;;;14.60;90.40;;;;;;5026367;28;19921;-76
2022/01/02 11:11:53;;;;;;;;;;;14.60;90.10;;;;;;5020256;28;19917;-76
2022/01/02 11:14:19;;;;;;;;;;;14.60;89.90;;;;;;5016289;28;19914;-76
2022/01/02 11:16:44;;;;;;;;;;;14.60;89.30;;;;;;5016700;28;19945;-73
2022/01/02 11:19:11;;;;;;;;;;;14.70;89.30;;;;;;5016486;28;19913;-73
2022/01/02 11:21:40;;;;;;;;;;;14.70;88.70;;;;;;5016880;28;20292;-74
2022/01/02 11:24:23;;;;;;;;;;;14.70;89.60;;;;;;5016678;28;19922;-74
2022/01/02 11:27:07;;;;;;;;;;;14.70;88.60;;;;;;5018424;28;19924;-73
2022/01/02 11:29:34;;;;;;;;;;;14.70;88.90;;;;;;5019616;28;19925;-72
2022/01/02 11:31:59;;;;;;;;;;;14.80;88.60;;;;;;5021673;28;20020;-72
2022/01/02 11:34:31;;;;;;;;;;;14.70;87.80;;;;;;5019618;28;19953;-71
2022/01/02 11:37:09;;;;;;;;;;;14.80;88.50;;;;;;5019794;28;20059;-71
2022/01/02 11:39:53;;;;;;;;;;;14.70;89.00;;;;;;5019750;28;19914;-71
2022/01/02 11:42:34;;;;;;;;;;;14.80;87.80;;;;;;5019233;28;19921;-71
2022/01/02 11:45:00;;;;;;;;;;;14.70;88.20;;;;;;5019865;28;19957;-71
2022/01/02 11:47:39;;;;;;;;;;;14.70;88.70;;;;;;5024357;28;20396;-71
2022/01/02 11:50:25;;;;;;;;;;;14.80;88.20;;;;;;5017740;28;20372;-71
2022/01/02 11:53:09;;;;;;;;;;;14.80;88.40;;;;;;5018922;28;19909;-71
2022/01/02 11:55:35;;;;;;;;;;;14.80;88.90;;;;;;5019465;28;19913;-71
2022/01/02 11:58:01;;;;;;;;;;;14.90;87.50;;;;;;5021279;28;19955;-71
2022/01/02 12:00:34;;;;;;;;;;;14.90;87.20;;;;;;5032345;28;19913;-71
2022/01/02 12:02:59;;;;;;;;;;;14.90;87.20;;;;;;5022993;28;19917;-71
2022/01/02 12:05:25;;;;;;;;;;;15.00;86.50;;;;;;5019716;28;19913;-71
2022/01/02 12:07:53;;;;;;;;;;;14.90;86.90;;;;;;5019805;28;19914;-71
2022/01/02 12:10:23;;;;;;;;;;;14.90;86.60;;;;;;5019522;28;20392;-71
2022/01/02 12:13:10;;;;;;;;;;;14.90;86.30;;;;;;5019322;28;19914;-71
2022/01/02 12:15:38;;;;;;;;;;;14.90;85.20;;;;;;5019755;28;20004;-71
2022/01/02 12:18:04;;;;;;;;;;;14.90;85.40;;;;;;5019453;28;19921;-72
2022/01/02 12:20:49;;;;;;;;;;;14.90;85.50;;;;;;5018689;28;19969;-73
2022/01/02 12:23:30;;;;;;;;;;;14.80;85.60;;;;;;5019100;28;19914;-74
2022/01/02 12:26:21;;;;;;;;;;;14.80;86.80;;;;;;5015874;28;19921;-72
2022/01/02 12:28:57;;;;;;;;;;;14.90;85.90;;;;;;5022303;28;19924;-73
2022/01/02 12:31:30;;;;;;;;;;;15.00;85.70;;;;;;5014647;28;20005;-72
2022/01/02 12:34:03;;;;;;;;;;;15.10;86.40;;;;;;5018361;28;19918;-74
2022/01/02 12:36:28;;;;;;;;;;;15.20;85.40;;;;;;5018025;28;19913;-72
2022/01/02 12:38:55;;;;;;;;;;;15.20;85.80;;;;;;5018890;28;19914;-72
2022/01/02 12:41:31;;;;;;;;;;;15.30;85.10;;;;;;5017684;28;19972;-72
2022/01/02 12:43:58;;;;;;;;;;;15.30;84.00;;;;;;5019093;28;19909;-77
2022/01/02 12:46:35;;;;;;;;;;;15.40;83.20;;;;;;5024454;28;19925;-73
2022/01/02 12:49:01;;;;;;;;;;;15.40;84.00;;;;;;5017708;28;19960;-77
2022/01/02 12:51:31;;;;;;;;;;;15.40;83.60;;;;;;5019166;28;19916;-84
2022/01/02 12:54:00;;;;;;;;;;;15.40;83.80;;;;;;5005156;28;20192;-78
2022/01/02 12:56:32;;;;;;;;;;;15.50;84.50;;;;;;5017268;28;19913;-78
2022/01/02 12:59:18;;;;;;;;;;;15.60;83.30;;;;;;5019028;28;20329;-78
2022/01/02 13:01:47;;;;;;;;;;;15.60;83.10;;;;;;5014098;28;20296;-77
2022/01/02 13:04:13;;;;;;;;;;;15.70;81.70;;;;;;5007152;28;19913;-77
2022/01/02 13:06:38;;;;;;;;;;;15.70;81.70;;;;;;5018746;28;19921;-78
2022/01/02 13:12:19;;;;;;;;;;;15.70;80.70;;;;;;5017712;28;20364;-79
2022/01/02 13:14:49;;;;;;;;;;;15.70;80.60;;;;;;5018487;28;19913;-76
2022/01/02 13:17:16;;;;;;;;;;;15.70;82.00;;;;;;5018635;28;20399;-76
2022/01/02 13:19:44;;;;;;;;;;;15.90;81.40;;;;;;5018432;28;19910;-76
2022/01/02 13:22:14;;;;;;;;;;;16.10;79.50;;;;;;5018723;28;19913;-77
2022/01/02 13:24:40;;;;;;;;;;;16.30;78.00;;;;;;5018333;28;19929;-76
2022/01/02 13:27:06;;;;;;;;;;;16.40;78.50;;;;;;5023396;28;19917;-77
2022/01/02 13:29:32;;;;;;;;;;;16.50;77.30;;;;;;5018317;28;20095;-77
2022/01/02 13:32:10;;;;;;;;;;;16.40;77.10;;;;;;5014895;28;20381;-78
2022/01/02 13:34:35;;;;;;;;;;;16.20;77.00;;;;;;5020118;28;19997;-79
2022/01/02 13:37:02;;;;;;;;;;;16.10;77.90;;;;;;5016555;28;20384;-79
2022/01/02 13:39:37;;;;;;;;;;;16.00;78.30;;;;;;5017649;28;19914;-77
2022/01/02 13:42:03;;;;;;;;;;;15.90;79.80;;;;;;5011590;28;19984;-77
2022/01/02 13:44:35;;;;;;;;;;;15.90;79.80;;;;;;5024259;28;19913;-78
2022/01/02 13:47:00;;;;;;;;;;;15.90;79.90;;;;;;5013703;28;19957;-77
2022/01/02 13:49:59;;;;;;;;;;;15.90;80.10;;;;;;5017100;28;19917;-76
2022/01/02 13:52:25;;;;;;;;;;;15.80;80.80;;;;;;4985277;28;19921;-79
2022/01/02 13:55:05;;;;;;;;;;;15.70;81.00;;;;;;5017278;28;19913;-77
2022/01/02 13:57:31;;;;;;;;;;;15.80;82.30;;;;;;5018029;28;19917;-77
2022/01/02 13:59:56;;;;;;;;;;;15.60;82.50;;;;;;5015689;28;19913;-78
2022/01/02 14:02:37;;;;;;;;;;;15.60;82.90;;;;;;5019286;28;19914;-77
2022/01/02 14:05:03;;;;;;;;;;;15.50;84.10;;;;;;5022058;28;19920;-75
2022/01/02 14:07:29;;;;;;;;;;;15.50;84.60;;;;;;5030049;28;19917;-82
2022/01/02 14:09:55;;;;;;;;;;;15.40;84.70;;;;;;5024206;28;19931;-78
2022/01/02 14:12:25;;;;;;;;;;;15.40;82.90;;;;;;5020716;28;20279;-78
2022/01/02 14:15:01;;;;;;;;;;;15.40;82.90;;;;;;5017495;28;19914;-76
2022/01/02 14:17:34;;;;;;;;;;;15.40;82.30;;;;;;5016005;28;19913;-82
2022/01/02 14:20:04;;;;;;;;;;;15.30;83.20;;;;;;5014267;28;19909;-77
2022/01/02 14:22:33;;;;;;;;;;;15.30;83.80;;;;;;5015671;28;19920;-79
2022/01/02 14:24:58;;;;;;;;;;;15.30;84.10;;;;;;5014435;28;19922;-82
2022/01/02 14:27:25;;;;;;;;;;;15.30;83.50;;;;;;5016449;28;20411;-80
2022/01/02 14:29:52;;;;;;;;;;;15.20;82.70;;;;;;5021201;28;19913;-79